Time;durP1;ratioP1;P1;durP2;ratioP2;P2;SDS_P1;SDS_P2;PMS_P1;PMS_P2;Temp;Humidity;BMP_temperature;BMP_pressure;BME280_temperature;BME280_humidity;BME280_pressure;Samples;Min_cycle;Max_cycle;Signal;HPM_P1;HPM_P2
2023/06/04 00:00:47;;;;;;;10.30;4.13;;;15.50;98.00;;;;;;5050726;28;20548;-67
2023/06/04 00:03:14;;;;;;;12.53;5.00;;;15.50;98.00;;;;;;5050811;28;20574;-66
2023/06/04 00:05:41;;;;;;;8.27;4.93;;;15.50;98.00;;;;;;5050818;28;21034;-67
2023/06/04 00:08:08;;;;;;;7.90;4.23;;;15.60;98.00;;;;;;5051001;28;20449;-66
2023/06/04 00:10:35;;;;;;;9.27;4.93;;;15.50;98.00;;;;;;5033259;28;20531;-68
2023/06/04 00:13:02;;;;;;;13.83;4.80;;;15.40;98.00;;;;;;5050797;28;20588;-67
2023/06/04 00:15:31;;;;;;;11.63;4.83;;;15.40;98.00;;;;;;5050584;28;20540;-67
2023/06/04 00:18:00;;;;;;;8.93;5.03;;;15.50;98.00;;;;;;5032055;28;20480;-68
2023/06/04 00:20:27;;;;;;;9.03;4.50;;;15.50;98.00;;;;;;5050588;28;20458;-67
2023/06/04 00:22:54;;;;;;;9.23;4.57;;;15.60;98.00;;;;;;5050601;28;20495;-66
2023/06/04 00:25:21;;;;;;;8.90;5.07;;;15.60;98.00;;;;;;5032982;28;20453;-68
2023/06/04 00:27:48;;;;;;;11.33;4.83;;;15.50;98.00;;;;;;5050584;28;20862;-67
2023/06/04 00:30:16;;;;;;;7.70;4.37;;;15.40;98.00;;;;;;5050469;28;20467;-68
2023/06/04 00:32:43;;;;;;;9.53;4.67;;;15.40;98.00;;;;;;5050513;28;20460;-67
2023/06/04 00:35:11;;;;;;;6.50;3.80;;;15.40;98.00;;;;;;5050492;28;20457;-68
2023/06/04 00:37:39;;;;;;;7.63;4.37;;;15.30;98.00;;;;;;5050426;28;20479;-66
2023/06/04 00:40:07;;;;;;;7.43;3.93;;;15.30;98.00;;;;;;5050367;28;20824;-67
2023/06/04 00:42:34;;;;;;;6.80;3.73;;;15.30;98.00;;;;;;5050420;28;20454;-67
2023/06/04 00:45:02;;;;;;;7.90;4.60;;;15.10;98.00;;;;;;5051464;28;20507;-66
2023/06/04 00:47:29;;;;;;;9.63;4.27;;;15.20;98.00;;;;;;5054109;28;20454;-66
2023/06/04 00:49:59;;;;;;;7.97;4.40;;;15.20;98.00;;;;;;5054093;28;20449;-67
2023/06/04 00:52:27;;;;;;;8.57;4.30;;;15.20;98.00;;;;;;5053993;28;20481;-66
2023/06/04 00:54:54;;;;;;;5.93;3.50;;;15.10;98.00;;;;;;5053772;28;21013;-66
2023/06/04 00:57:22;;;;;;;7.83;3.97;;;15.10;98.00;;;;;;5053846;28;20523;-68
2023/06/04 00:59:50;;;;;;;12.17;4.07;;;15.10;98.00;;;;;;5053921;28;20461;-66
2023/06/04 01:02:20;;;;;;;6.43;3.60;;;15.10;98.00;;;;;;5054062;28;20480;-67
2023/06/04 01:04:53;;;;;;;6.77;3.10;;;15.10;98.00;;;;;;5054092;28;20500;-67
2023/06/04 01:07:20;;;;;;;6.40;3.83;;;15.10;98.00;;;;;;5053458;28;20515;-67
2023/06/04 01:09:50;;;;;;;5.73;3.30;;;15.00;98.00;;;;;;5053810;28;20895;-66
2023/06/04 01:12:17;;;;;;;5.33;3.37;;;14.90;98.00;;;;;;5053529;28;20966;-66
2023/06/04 01:14:44;;;;;;;7.67;3.53;;;14.90;98.00;;;;;;5053438;28;20512;-67
2023/06/04 01:17:17;;;;;;;8.20;3.60;;;14.90;98.00;;;;;;5053457;28;20860;-67
2023/06/04 01:20:32;;;;;;;5.90;3.40;;;14.90;98.00;;;;;;5053486;28;20465;-68
2023/06/04 01:23:34;;;;;;;6.50;3.50;;;14.90;98.00;;;;;;4972112;28;20919;-68
2023/06/04 01:26:03;;;;;;;6.13;3.17;;;14.90;98.00;;;;;;5053258;28;20448;-67
2023/06/04 01:28:31;;;;;;;5.60;3.00;;;14.90;98.00;;;;;;5053241;28;20461;-67
2023/06/04 01:30:59;;;;;;;7.10;3.37;;;14.90;98.00;;;;;;5053205;28;20491;-67
2023/06/04 01:33:27;;;;;;;7.43;3.80;;;14.90;98.00;;;;;;5053198;28;20464;-67
2023/06/04 01:35:54;;;;;;;5.50;3.20;;;14.80;98.00;;;;;;5052969;28;20512;-68
2023/06/04 01:38:21;;;;;;;6.30;3.20;;;14.90;98.00;;;;;;5053080;28;20459;-67
2023/06/04 01:40:50;;;;;;;7.80;3.20;;;14.80;98.00;;;;;;5052854;28;20519;-67
2023/06/04 01:43:18;;;;;;;5.17;2.80;;;14.50;98.00;;;;;;5035556;28;20617;-67
2023/06/04 01:45:46;;;;;;;4.10;2.57;;;14.50;98.00;;;;;;5052803;28;20450;-67
2023/06/04 01:48:13;;;;;;;5.63;3.23;;;14.50;98.00;;;;;;5053183;28;20454;-67
2023/06/04 01:50:40;;;;;;;7.50;3.13;;;14.50;98.00;;;;;;5053058;28;21018;-66
2023/06/04 01:53:07;;;;;;;6.03;2.80;;;14.50;98.00;;;;;;5035335;28;20469;-66
2023/06/04 01:55:34;;;;;;;4.23;2.80;;;14.50;98.00;;;;;;5052741;28;20864;-66
2023/06/04 01:58:02;;;;;;;4.73;2.70;;;14.50;98.00;;;;;;5053064;28;20515;-67
2023/06/04 02:00:30;;;;;;;4.07;2.60;;;14.50;98.00;;;;;;5052796;28;20956;-67
2023/06/04 02:02:58;;;;;;;4.63;2.70;;;14.50;98.00;;;;;;5052755;28;20516;-68
2023/06/04 02:05:25;;;;;;;5.27;2.70;;;14.50;98.00;;;;;;5052618;28;20531;-66
2023/06/04 02:07:52;;;;;;;4.80;2.73;;;14.50;98.00;;;;;;5053620;28;20888;-67
2023/06/04 02:10:20;;;;;;;4.10;2.40;;;14.60;98.00;;;;;;5053600;28;20504;-67
2023/06/04 02:12:59;;;;;;;4.37;2.60;;;14.60;98.00;;;;;;5052815;28;20465;-66
2023/06/04 02:15:27;;;;;;;3.43;2.37;;;14.60;98.00;;;;;;5052867;28;20509;-67
2023/06/04 02:17:59;;;;;;;7.87;3.00;;;14.80;98.00;;;;;;5053549;28;20975;-67
2023/06/04 02:20:26;;;;;;;5.13;2.93;;;14.80;98.00;;;;;;5053174;28;20568;-66
2023/06/04 02:22:55;;;;;;;6.90;2.97;;;14.80;98.00;;;;;;5052425;28;20468;-68
2023/06/04 02:25:23;;;;;;;3.50;2.30;;;14.70;98.00;;;;;;5052051;28;20464;-66
2023/06/04 02:27:50;;;;;;;6.07;3.17;;;14.70;98.00;;;;;;5052211;28;20537;-67
2023/06/04 02:30:17;;;;;;;5.87;3.37;;;14.60;98.00;;;;;;5052058;28;20531;-67
2023/06/04 02:32:44;;;;;;;5.53;3.00;;;14.50;98.00;;;;;;5052126;28;20537;-67
2023/06/04 02:35:13;;;;;;;5.53;3.40;;;14.50;98.00;;;;;;5052275;28;20810;-67
2023/06/04 02:37:40;;;;;;;6.23;3.17;;;14.50;98.00;;;;;;5052135;28;20867;-67
2023/06/04 02:40:09;;;;;;;7.10;3.20;;;14.40;98.00;;;;;;5051862;28;20489;-68
2023/06/04 02:42:36;;;;;;;5.10;3.17;;;14.50;98.00;;;;;;5051955;28;20450;-66
2023/06/04 02:45:04;;;;;;;5.60;3.20;;;14.40;98.00;;;;;;5051762;28;20678;-66
2023/06/04 02:47:31;;;;;;;7.13;3.30;;;14.40;98.00;;;;;;5051969;28;20457;-67
2023/06/04 02:49:58;;;;;;;5.93;3.00;;;14.50;98.00;;;;;;5051726;28;20456;-66
2023/06/04 02:52:26;;;;;;;4.13;2.70;;;14.50;98.00;;;;;;5034061;28;20825;-66
2023/06/04 02:54:53;;;;;;;4.63;2.63;;;14.50;98.00;;;;;;5034263;28;20468;-67
2023/06/04 02:57:20;;;;;;;4.00;2.50;;;14.50;98.00;;;;;;5051772;28;20466;-66
2023/06/04 02:59:47;;;;;;;5.70;2.97;;;14.40;98.00;;;;;;5034345;28;20449;-68
2023/06/04 03:02:14;;;;;;;3.93;2.57;;;14.30;98.00;;;;;;5051769;28;20519;-67
2023/06/04 03:04:42;;;;;;;4.33;2.67;;;14.10;98.00;;;;;;5051588;28;20998;-67
2023/06/04 03:07:11;;;;;;;6.13;2.90;;;14.10;98.00;;;;;;5051175;28;20450;-66
2023/06/04 03:09:40;;;;;;;5.00;2.90;;;13.90;98.00;;;;;;5051338;28;21017;-66
2023/06/04 03:12:08;;;;;;;5.87;2.80;;;13.80;98.00;;;;;;5051603;28;20465;-67
2023/06/04 03:14:35;;;;;;;5.47;2.90;;;13.90;98.00;;;;;;5051305;28;20452;-67
2023/06/04 03:17:07;;;;;;;4.20;2.30;;;14.10;98.00;;;;;;5051594;28;20449;-66
2023/06/04 03:19:35;;;;;;;3.63;2.60;;;14.10;98.00;;;;;;5051329;28;20462;-68
2023/06/04 03:22:05;;;;;;;5.40;2.33;;;14.10;98.00;;;;;;5051336;28;20457;-66
2023/06/04 03:24:34;;;;;;;4.23;2.40;;;14.20;98.00;;;;;;5051221;28;20925;-67
2023/06/04 03:27:05;;;;;;;3.37;2.13;;;14.40;98.00;;;;;;5051187;28;20877;-66
2023/06/04 03:29:32;;;;;;;5.73;2.77;;;14.40;98.00;;;;;;5033544;28;20968;-66
2023/06/04 03:32:02;;;;;;;5.80;2.40;;;14.40;98.00;;;;;;5051286;28;20482;-67
2023/06/04 03:34:31;;;;;;;7.57;2.53;;;14.30;98.00;;;;;;5051055;28;20449;-66
2023/06/04 03:36:59;;;;;;;3.13;2.23;;;14.30;98.00;;;;;;5051022;28;20461;-66
2023/06/04 03:39:27;;;;;;;8.70;3.10;;;14.30;98.00;;;;;;5050847;28;21027;-66
2023/06/04 03:41:54;;;;;;;5.13;3.10;;;14.40;98.00;;;;;;5051346;28;20464;-67
2023/06/04 03:44:23;;;;;;;7.40;2.90;;;14.40;98.00;;;;;;5051271;28;20517;-67
2023/06/04 03:46:50;;;;;;;5.50;3.17;;;14.40;98.00;;;;;;5051375;28;20540;-67
2023/06/04 03:49:18;;;;;;;4.10;2.90;;;14.30;98.00;;;;;;5051492;28;20458;-66
2023/06/04 03:51:45;;;;;;;6.30;3.07;;;14.30;98.00;;;;;;5051482;28;20462;-66
2023/06/04 03:54:16;;;;;;;4.50;2.80;;;14.20;98.00;;;;;;5051013;28;20492;-67
2023/06/04 03:56:44;;;;;;;5.50;2.90;;;14.30;98.00;;;;;;5050652;28;20458;-67
2023/06/04 03:59:11;;;;;;;5.30;2.70;;;14.20;98.00;;;;;;5050991;28;20830;-66
2023/06/04 04:01:40;;;;;;;6.17;3.27;;;14.10;98.00;;;;;;5050742;28;20496;-66
2023/06/04 04:04:07;;;;;;;4.30;2.80;;;14.00;98.00;;;;;;5033155;28;20480;-66
2023/06/04 04:06:35;;;;;;;4.50;2.80;;;14.10;98.00;;;;;;5050667;28;20462;-66
2023/06/04 04:09:03;;;;;;;6.47;2.97;;;14.20;98.00;;;;;;5050901;28;20964;-67
2023/06/04 04:11:37;;;;;;;5.07;2.90;;;14.20;98.00;;;;;;5050659;28;20522;-68
2023/06/04 04:14:04;;;;;;;5.50;3.13;;;13.90;98.00;;;;;;5050927;28;20453;-66
2023/06/04 04:16:31;;;;;;;6.57;3.00;;;13.80;98.00;;;;;;5033101;28;20515;-66
2023/06/04 04:19:00;;;;;;;3.90;2.80;;;13.80;98.00;;;;;;5050746;28;20955;-66
2023/06/04 04:21:27;;;;;;;4.50;2.90;;;14.10;98.00;;;;;;5053915;28;20539;-66
2023/06/04 04:23:54;;;;;;;5.30;3.30;;;14.30;98.00;;;;;;5054518;28;20535;-66
2023/06/04 04:26:22;;;;;;;4.77;3.00;;;14.20;98.00;;;;;;5054300;28;20461;-66
2023/06/04 04:28:49;;;;;;;5.40;3.03;;;14.30;98.00;;;;;;5054625;28;20927;-66
2023/06/04 04:31:17;;;;;;;6.80;3.43;;;14.30;98.00;;;;;;5054242;28;20545;-67
2023/06/04 04:33:45;;;;;;;5.50;3.10;;;14.30;98.00;;;;;;5054364;28;20458;-66
2023/06/04 04:36:13;;;;;;;5.70;2.93;;;14.30;98.00;;;;;;5036505;28;20484;-66
2023/06/04 04:38:41;;;;;;;5.57;3.20;;;14.40;98.00;;;;;;5054301;28;20548;-68
2023/06/04 04:41:08;;;;;;;4.87;3.17;;;14.50;98.00;;;;;;5054132;28;20465;-66
2023/06/04 04:43:37;;;;;;;5.97;3.00;;;14.60;98.00;;;;;;5054226;28;20522;-66
2023/06/04 04:46:04;;;;;;;4.80;3.20;;;14.70;98.00;;;;;;5054161;28;20450;-65
2023/06/04 04:48:31;;;;;;;5.27;3.10;;;14.50;98.00;;;;;;5054123;28;20461;-67
2023/06/04 04:50:59;;;;;;;4.00;2.60;;;14.50;98.00;;;;;;5036446;28;20864;-67
2023/06/04 04:53:28;;;;;;;6.30;2.83;;;14.40;98.00;;;;;;5054285;28;20454;-67
2023/06/04 04:55:55;;;;;;;6.67;2.83;;;14.60;98.00;;;;;;5054026;28;20545;-66
2023/06/04 04:58:22;;;;;;;5.57;2.87;;;14.60;98.00;;;;;;5053969;28;20709;-67
2023/06/04 05:00:50;;;;;;;4.87;2.97;;;14.70;98.00;;;;;;5053792;28;20457;-67
2023/06/04 05:03:17;;;;;;;7.10;2.80;;;14.70;98.00;;;;;;5036239;28;20515;-66
2023/06/04 05:05:45;;;;;;;4.87;2.80;;;14.90;98.00;;;;;;5053284;28;20539;-67
2023/06/04 05:08:12;;;;;;;5.10;2.97;;;14.90;98.00;;;;;;5053867;28;20826;-67
2023/06/04 05:10:41;;;;;;;6.20;3.23;;;14.90;98.00;;;;;;5053609;28;20864;-67
2023/06/04 05:13:16;;;;;;;4.30;2.73;;;14.90;98.00;;;;;;5053648;28;20454;-68
2023/06/04 05:15:43;;;;;;;4.03;2.40;;;14.90;98.00;;;;;;5036769;28;20464;-66
2023/06/04 05:18:10;;;;;;;4.33;2.60;;;15.00;98.00;;;;;;5053562;28;20454;-67
2023/06/04 05:20:37;;;;;;;5.13;2.97;;;15.10;98.00;;;;;;5053399;28;20453;-66
2023/06/04 05:23:06;;;;;;;4.80;2.60;;;15.20;98.00;;;;;;5053775;28;20654;-66
2023/06/04 05:25:33;;;;;;;6.30;2.80;;;15.20;98.00;;;;;;5053209;28;20899;-66
2023/06/04 05:28:01;;;;;;;4.63;2.97;;;15.10;98.00;;;;;;5035590;28;20462;-66
2023/06/04 05:30:28;;;;;;;4.73;2.43;;;15.20;98.00;;;;;;5052734;28;20457;-66
2023/06/04 05:32:55;;;;;;;5.10;2.67;;;15.20;98.00;;;;;;5053381;28;20531;-68
2023/06/04 05:35:22;;;;;;;3.47;2.17;;;15.40;98.00;;;;;;5053102;28;20458;-66
2023/06/04 05:37:54;;;;;;;3.20;2.20;;;15.40;98.00;;;;;;5053266;28;20484;-68
2023/06/04 05:40:22;;;;;;;2.33;1.87;;;15.40;98.00;;;;;;5053075;28;20880;-66
2023/06/04 05:42:49;;;;;;;9.20;2.40;;;15.50;98.00;;;;;;5053330;28;20544;-66
2023/06/04 05:45:18;;;;;;;3.73;2.20;;;15.60;98.00;;;;;;5053326;28;20481;-66
2023/06/04 05:47:45;;;;;;;3.97;2.40;;;15.60;98.00;;;;;;5053102;28;21030;-67
2023/06/04 05:50:12;;;;;;;3.43;1.73;;;15.70;98.00;;;;;;5052800;28;20462;-66
2023/06/04 05:52:40;;;;;;;7.27;2.33;;;15.70;97.00;;;;;;5052817;28;20815;-66
2023/06/04 05:55:08;;;;;;;3.93;2.10;;;15.80;97.60;;;;;;5052795;28;20936;-66
2023/06/04 05:57:35;;;;;;;3.03;2.13;;;15.90;97.30;;;;;;5052557;28;20842;-66
2023/06/04 06:00:04;;;;;;;4.40;2.30;;;16.00;96.60;;;;;;5052799;28;20458;-66
2023/06/04 06:02:32;;;;;;;4.67;2.00;;;16.10;96.50;;;;;;5052466;28;20454;-66
2023/06/04 06:04:59;;;;;;;2.70;1.73;;;16.10;95.70;;;;;;5052628;28;21152;-67
2023/06/04 06:07:26;;;;;;;2.87;2.00;;;16.20;95.00;;;;;;5052705;28;20545;-67
2023/06/04 06:09:54;;;;;;;3.30;2.07;;;16.30;95.50;;;;;;5052682;28;20457;-66
2023/06/04 06:12:21;;;;;;;4.50;2.30;;;16.40;95.50;;;;;;5052316;28;20455;-67
2023/06/04 06:14:48;;;;;;;3.30;2.10;;;16.50;95.10;;;;;;5034677;28;21012;-67
2023/06/04 06:17:16;;;;;;;2.50;2.00;;;16.60;94.80;;;;;;5052253;28;20466;-67
2023/06/04 06:19:44;;;;;;;2.90;2.07;;;16.70;95.40;;;;;;5052321;28;20454;-66
2023/06/04 06:22:12;;;;;;;6.97;2.50;;;16.80;95.80;;;;;;5052273;28;20458;-67
2023/06/04 06:24:41;;;;;;;3.87;1.80;;;17.00;95.20;;;;;;5052155;28;21076;-67
2023/06/04 06:27:11;;;;;;;3.50;2.17;;;17.10;95.00;;;;;;5052429;28;20553;-67
2023/06/04 06:29:39;;;;;;;3.53;2.03;;;17.20;93.80;;;;;;5052700;28;20536;-68
2023/06/04 06:32:06;;;;;;;7.47;1.93;;;17.30;94.00;;;;;;5052089;28;20450;-67
2023/06/04 06:34:34;;;;;;;3.17;2.10;;;17.30;94.20;;;;;;5052169;28;20453;-68
2023/06/04 06:37:02;;;;;;;2.50;1.90;;;17.40;95.20;;;;;;5052168;28;20488;-67
2023/06/04 06:39:29;;;;;;;4.30;2.50;;;17.50;94.80;;;;;;5051946;28;20470;-66
2023/06/04 06:41:56;;;;;;;4.17;2.77;;;17.50;93.30;;;;;;5051820;28;20511;-67
2023/06/04 06:44:25;;;;;;;6.40;2.30;;;17.60;94.50;;;;;;5051460;28;20458;-67
2023/06/04 06:46:52;;;;;;;2.30;1.90;;;17.70;94.10;;;;;;5034091;28;20469;-68
2023/06/04 06:49:19;;;;;;;2.90;2.00;;;17.70;94.50;;;;;;5051692;28;20454;-68
2023/06/04 06:51:46;;;;;;;2.73;1.87;;;17.80;94.20;;;;;;5051770;28;20462;-68
2023/06/04 06:54:17;;;;;;;2.17;1.80;;;17.90;93.90;;;;;;5051799;28;20450;-68
2023/06/04 06:56:44;;;;;;;4.00;2.47;;;18.10;93.70;;;;;;5034143;28;20453;-68
2023/06/04 06:59:11;;;;;;;3.40;2.13;;;18.10;93.80;;;;;;5051651;28;20807;-67
2023/06/04 07:01:39;;;;;;;3.87;2.50;;;18.10;93.30;;;;;;5051356;28;20446;-67
2023/06/04 07:04:07;;;;;;;3.00;2.43;;;18.10;93.10;;;;;;5051572;28;20466;-67
2023/06/04 07:06:36;;;;;;;5.20;2.93;;;18.20;94.30;;;;;;5051266;28;20489;-68
2023/06/04 07:09:04;;;;;;;4.67;2.47;;;18.30;94.20;;;;;;5051408;28;21028;-68
2023/06/04 07:11:36;;;;;;;3.83;2.20;;;18.40;94.70;;;;;;5051396;28;20771;-67
2023/06/04 07:14:03;;;;;;;4.30;2.50;;;18.70;93.70;;;;;;5051745;28;20858;-67
2023/06/04 07:16:31;;;;;;;3.27;2.13;;;18.80;94.10;;;;;;5051183;28;20458;-67
2023/06/04 07:18:58;;;;;;;3.80;2.20;;;18.90;93.10;;;;;;5050858;28;20457;-68
2023/06/04 07:21:25;;;;;;;3.50;2.50;;;19.00;92.50;;;;;;5051243;28;20823;-68
2023/06/04 07:23:52;;;;;;;3.80;2.40;;;19.00;92.20;;;;;;5051319;28;20507;-69
2023/06/04 07:26:19;;;;;;;4.30;2.40;;;19.20;92.40;;;;;;5051096;28;20478;-67
2023/06/04 07:28:47;;;;;;;4.37;2.90;;;19.40;91.60;;;;;;5051178;28;20457;-68
2023/06/04 07:31:16;;;;;;;3.63;2.40;;;19.40;92.00;;;;;;5050958;28;21009;-69
2023/06/04 07:33:45;;;;;;;4.33;2.37;;;19.40;92.10;;;;;;5051300;28;20549;-68
2023/06/04 07:36:14;;;;;;;2.93;2.10;;;19.50;90.20;;;;;;5033794;28;21035;-68
2023/06/04 07:38:41;;;;;;;3.97;2.60;;;19.60;93.10;;;;;;5051020;28;20446;-68
2023/06/04 07:41:08;;;;;;;5.90;2.33;;;19.70;92.00;;;;;;5050807;28;20480;-69
2023/06/04 07:43:35;;;;;;;6.93;2.50;;;19.90;92.10;;;;;;5051046;28;20457;-68
2023/06/04 07:46:04;;;;;;;7.83;2.90;;;20.00;91.20;;;;;;5050905;28;20595;-67
2023/06/04 07:48:31;;;;;;;6.20;2.90;;;20.00;92.10;;;;;;5050874;28;20462;-66
2023/06/04 07:50:58;;;;;;;3.43;2.40;;;20.10;91.40;;;;;;5050915;28;20541;-66
2023/06/04 07:53:26;;;;;;;4.27;2.33;;;20.20;90.50;;;;;;5051102;28;20458;-66
2023/06/04 07:56:03;;;;;;;3.20;2.40;;;20.30;89.90;;;;;;5054832;28;20798;-66
2023/06/04 07:58:30;;;;;;;6.00;2.70;;;20.50;89.00;;;;;;5055046;28;20453;-66
2023/06/04 08:00:57;;;;;;;5.30;2.70;;;20.60;91.10;;;;;;5037205;28;20797;-66
2023/06/04 08:03:25;;;;;;;4.57;2.57;;;20.80;91.30;;;;;;5037290;28;20878;-67
2023/06/04 08:05:53;;;;;;;4.40;2.70;;;20.80;89.20;;;;;;5054807;28;20854;-67
2023/06/04 08:08:22;;;;;;;3.43;2.13;;;20.90;89.90;;;;;;5054831;28;20462;-66
2023/06/04 08:10:49;;;;;;;5.60;2.60;;;21.00;89.60;;;;;;5054787;28;20584;-66
2023/06/04 08:13:16;;;;;;;4.33;2.50;;;21.10;88.60;;;;;;5037087;28;20930;-67
2023/06/04 08:15:44;;;;;;;3.87;2.60;;;21.20;88.70;;;;;;5054706;28;20570;-68
2023/06/04 08:18:11;;;;;;;2.70;2.20;;;21.20;88.20;;;;;;5054695;28;20808;-66
2023/06/04 08:20:41;;;;;;;4.10;2.80;;;21.30;88.70;;;;;;5054219;28;20457;-66
2023/06/04 08:23:08;;;;;;;4.90;2.40;;;21.50;89.00;;;;;;5054794;28;20461;-67
2023/06/04 08:25:35;;;;;;;4.30;2.50;;;21.60;88.00;;;;;;5054452;28;20536;-67
2023/06/04 08:28:02;;;;;;;4.87;2.77;;;21.70;88.00;;;;;;5054728;28;20853;-68
2023/06/04 08:30:29;;;;;;;4.10;2.63;;;21.80;87.20;;;;;;5054548;28;20464;-66
2023/06/04 08:32:56;;;;;;;4.23;2.80;;;21.90;87.10;;;;;;5054553;28;20457;-66
2023/06/04 08:35:28;;;;;;;4.73;3.10;;;22.00;86.20;;;;;;5054672;28;20881;-67
2023/06/04 08:37:57;;;;;;;4.90;2.77;;;22.00;87.00;;;;;;5054313;28;20945;-67
2023/06/04 08:40:24;;;;;;;4.50;2.70;;;22.20;86.50;;;;;;5054183;28;20986;-66
2023/06/04 08:42:58;;;;;;;6.20;2.70;;;22.30;87.40;;;;;;5054270;28;20476;-67
2023/06/04 08:45:25;;;;;;;6.73;2.80;;;22.50;87.10;;;;;;5053822;28;20517;-67
2023/06/04 08:47:52;;;;;;;5.53;2.80;;;22.50;84.80;;;;;;5054069;28;20557;-68
2023/06/04 08:50:22;;;;;;;3.67;2.17;;;22.70;86.60;;;;;;5054071;28;20604;-66
2023/06/04 08:52:53;;;;;;;4.60;2.90;;;22.80;83.90;;;;;;5053907;28;20485;-66
2023/06/04 08:55:22;;;;;;;6.03;2.93;;;23.00;85.20;;;;;;5054071;28;20894;-68
2023/06/04 08:57:51;;;;;;;5.57;2.80;;;23.10;83.00;;;;;;5053869;28;20530;-67
2023/06/04 09:00:19;;;;;;;6.83;2.90;;;23.20;84.40;;;;;;5034761;28;20469;-66
2023/06/04 09:02:47;;;;;;;5.40;3.00;;;23.40;83.40;;;;;;5053989;28;20801;-67
2023/06/04 09:05:21;;;;;;;7.67;3.47;;;23.50;82.50;;;;;;5052988;28;20478;-67
2023/06/04 09:07:49;;;;;;;5.90;3.10;;;23.60;82.40;;;;;;5053659;28;20457;-69
2023/06/04 09:10:19;;;;;;;4.00;2.57;;;23.70;83.60;;;;;;5053528;28;20458;-68
2023/06/04 09:12:50;;;;;;;3.37;2.53;;;23.80;86.10;;;;;;5053331;28;20533;-70
2023/06/04 09:15:17;;;;;;;3.33;2.53;;;23.90;85.00;;;;;;5053341;28;20460;-70
2023/06/04 09:17:44;;;;;;;6.17;3.17;;;24.00;83.20;;;;;;5053511;28;20461;-69
2023/06/04 09:20:20;;;;;;;4.63;2.70;;;24.20;81.60;;;;;;5053412;28;20868;-68
2023/06/04 09:22:47;;;;;;;5.03;3.23;;;24.40;81.90;;;;;;5053459;28;20453;-68
2023/06/04 09:25:21;;;;;;;4.40;2.87;;;24.50;84.20;;;;;;5053564;28;20497;-70
2023/06/04 09:27:50;;;;;;;5.40;3.10;;;24.70;79.10;;;;;;5053287;28;20500;-69
2023/06/04 09:30:17;;;;;;;4.33;2.83;;;24.80;79.60;;;;;;5053196;28;20549;-67
2023/06/04 09:32:44;;;;;;;5.77;3.10;;;24.70;79.90;;;;;;5053287;28;20462;-70
2023/06/04 09:35:13;;;;;;;4.70;3.27;;;24.70;77.60;;;;;;5035715;28;20461;-68
2023/06/04 09:37:40;;;;;;;4.10;2.90;;;24.80;77.90;;;;;;5053041;28;20504;-69
2023/06/04 09:40:09;;;;;;;10.80;3.40;;;24.90;78.70;;;;;;5053110;28;20470;-69
2023/06/04 09:42:46;;;;;;;5.43;3.13;;;25.00;78.20;;;;;;5052815;28;20944;-66
2023/06/04 09:45:27;;;;;;;4.33;2.90;;;25.20;77.00;;;;;;5018707;28;20458;-63
2023/06/04 09:47:54;;;;;;;4.50;2.80;;;25.30;78.00;;;;;;5053004;28;20457;-67
2023/06/04 09:50:26;;;;;;;4.93;3.23;;;25.50;77.70;;;;;;5052886;28;20825;-68
2023/06/04 09:55:22;;;;;;;5.80;3.57;;;25.70;76.70;;;;;;5071845;28;21004;-62
2023/06/04 10:00:28;;;;;;;4.50;2.90;;;25.90;75.60;;;;;;5339386;22;20469;-63
2023/06/04 10:03:02;;;;;;;4.67;3.10;;;26.00;75.20;;;;;;5090429;28;20452;-64
2023/06/04 10:05:33;;;;;;;4.00;3.13;;;26.10;75.70;;;;;;5091099;28;20456;-63
2023/06/04 10:08:04;;;;;;;6.90;3.30;;;26.00;74.10;;;;;;5076852;28;20548;-63
2023/06/04 10:10:35;;;;;;;4.20;2.90;;;26.20;75.60;;;;;;5072998;28;20506;-63
2023/06/04 10:13:06;;;;;;;6.10;3.03;;;26.30;74.30;;;;;;5073027;28;20455;-63
2023/06/04 10:15:37;;;;;;;5.80;3.47;;;26.50;74.00;;;;;;5056041;28;20456;-62
2023/06/04 10:18:08;;;;;;;6.03;3.30;;;26.60;73.70;;;;;;5072165;28;20453;-63
2023/06/04 10:20:35;;;;;;;5.20;3.43;;;26.60;74.80;;;;;;5073157;28;20457;-63
2023/06/04 10:23:04;;;;;;;4.40;2.80;;;26.70;74.90;;;;;;5072880;28;20453;-62
2023/06/04 10:25:31;;;;;;;5.70;3.23;;;26.80;74.00;;;;;;5072709;28;20449;-62
2023/06/04 10:27:59;;;;;;;9.50;3.23;;;26.80;72.00;;;;;;5054746;28;20461;-62
2023/06/04 10:30:26;;;;;;;4.67;3.37;;;26.80;70.80;;;;;;5072722;28;20457;-63
2023/06/04 10:32:58;;;;;;;5.90;3.43;;;26.80;71.50;;;;;;5072791;28;20457;-63
2023/06/04 10:35:35;;;;;;;6.80;3.73;;;26.80;71.80;;;;;;5072668;28;20544;-62
2023/06/04 10:38:08;;;;;;;5.50;3.30;;;27.10;72.50;;;;;;5072587;28;20463;-62
2023/06/04 10:40:35;;;;;;;5.00;3.20;;;27.30;72.30;;;;;;5072559;28;20448;-62
2023/06/04 10:43:07;;;;;;;4.90;3.30;;;27.40;72.20;;;;;;5071924;28;20453;-62
2023/06/04 10:45:34;;;;;;;5.60;3.53;;;27.60;71.80;;;;;;5054123;28;20460;-62
2023/06/04 10:48:02;;;;;;;6.47;3.27;;;27.80;71.60;;;;;;5071768;28;20460;-63
2023/06/04 10:50:30;;;;;;;6.57;3.30;;;27.90;69.90;;;;;;5071634;28;20515;-63
2023/06/04 10:52:58;;;;;;;5.20;3.57;;;27.70;69.90;;;;;;5071506;28;21073;-63
2023/06/04 10:55:26;;;;;;;7.23;3.70;;;27.60;70.90;;;;;;5071542;28;21038;-63
2023/06/04 10:57:57;;;;;;;5.10;3.53;;;27.80;70.20;;;;;;5071542;28;20564;-63
2023/06/04 11:00:35;;;;;;;4.57;3.10;;;27.90;70.40;;;;;;5071465;28;20965;-63
2023/06/04 11:03:05;;;;;;;5.27;3.33;;;28.20;69.80;;;;;;5071568;28;20926;-62
2023/06/04 11:05:36;;;;;;;4.33;3.07;;;28.30;69.80;;;;;;5071441;28;20817;-63
2023/06/04 11:08:05;;;;;;;7.10;3.40;;;28.50;70.10;;;;;;5071484;28;20485;-62
2023/06/04 11:10:35;;;;;;;7.00;3.60;;;28.60;69.40;;;;;;5053753;28;21017;-62
2023/06/04 11:13:04;;;;;;;5.57;3.27;;;28.90;68.30;;;;;;5071857;28;20489;-63
2023/06/04 11:15:40;;;;;;;5.93;3.33;;;28.90;67.70;;;;;;5071442;28;20457;-63
2023/06/04 11:18:08;;;;;;;7.23;3.80;;;29.10;67.50;;;;;;5071322;28;20517;-63
2023/06/04 11:20:37;;;;;;;6.23;3.53;;;29.20;67.20;;;;;;5071395;28;20449;-63
2023/06/04 11:23:05;;;;;;;6.67;3.67;;;29.40;66.80;;;;;;5071325;28;20882;-63
2023/06/04 11:25:34;;;;;;;4.73;3.17;;;29.40;65.20;;;;;;5071162;28;20499;-63
2023/06/04 11:28:02;;;;;;;4.13;3.13;;;29.30;63.50;;;;;;5071068;28;20481;-63
2023/06/04 11:30:29;;;;;;;5.97;3.43;;;29.30;66.60;;;;;;5070952;28;20455;-63
2023/06/04 11:33:04;;;;;;;4.90;3.30;;;28.80;64.70;;;;;;5071255;28;20461;-63
2023/06/04 11:35:41;;;;;;;4.43;3.43;;;28.80;67.50;;;;;;5071149;28;20459;-63
2023/06/04 11:38:08;;;;;;;5.20;3.30;;;29.10;65.60;;;;;;5071199;28;20467;-63
2023/06/04 11:40:35;;;;;;;6.40;3.37;;;29.30;67.60;;;;;;5053332;28;20445;-63
2023/06/04 11:43:03;;;;;;;4.37;3.43;;;29.50;64.90;;;;;;5071072;28;20449;-63
2023/06/04 11:45:31;;;;;;;4.70;3.27;;;29.80;66.30;;;;;;5070631;28;20650;-62
2023/06/04 11:47:58;;;;;;;7.03;3.40;;;30.00;65.60;;;;;;5070997;28;20576;-62
2023/06/04 11:50:28;;;;;;;4.83;3.30;;;30.10;63.70;;;;;;5071069;28;20456;-62
2023/06/04 11:52:57;;;;;;;5.40;3.77;;;29.80;63.40;;;;;;5071240;28;20463;-62
2023/06/04 11:55:24;;;;;;;5.30;3.57;;;29.10;64.50;;;;;;5070879;28;20921;-63
2023/06/04 11:57:52;;;;;;;5.03;3.43;;;28.90;63.70;;;;;;5053293;28;20461;-63
2023/06/04 12:00:20;;;;;;;9.43;3.77;;;28.90;64.10;;;;;;5070886;28;20460;-63
2023/06/04 12:02:52;;;;;;;5.70;3.43;;;29.20;63.80;;;;;;5071151;28;20548;-62
2023/06/04 12:05:20;;;;;;;6.77;3.80;;;29.60;64.10;;;;;;5071013;28;20502;-62
2023/06/04 12:07:50;;;;;;;5.60;3.60;;;30.00;64.30;;;;;;5070948;28;20572;-63
2023/06/04 12:10:19;;;;;;;6.17;3.37;;;30.20;63.00;;;;;;5071181;28;20810;-63
2023/06/04 12:12:46;;;;;;;5.83;3.37;;;30.30;64.40;;;;;;5071030;28;20453;-63
2023/06/04 12:15:22;;;;;;;4.20;2.87;;;30.40;62.90;;;;;;5071036;28;21008;-62
2023/06/04 12:17:52;;;;;;;4.60;3.30;;;30.70;64.20;;;;;;5070906;28;20818;-62
2023/06/04 12:20:33;;;;;;;7.37;3.80;;;30.90;61.20;;;;;;5070951;28;20449;-62
2023/06/04 12:23:00;;;;;;;4.33;3.40;;;31.00;61.80;;;;;;5070759;28;21105;-62
2023/06/04 12:25:30;;;;;;;4.77;3.40;;;31.30;61.10;;;;;;5053038;28;20489;-62
2023/06/04 12:27:58;;;;;;;4.87;3.17;;;31.60;60.00;;;;;;5070551;28;20567;-61
2023/06/04 12:30:37;;;;;;;7.10;3.43;;;31.60;58.70;;;;;;5070656;28;20461;-62
2023/06/04 12:33:04;;;;;;;5.30;3.17;;;31.80;60.30;;;;;;5070576;28;20492;-61
2023/06/04 12:35:31;;;;;;;4.10;3.10;;;32.00;59.10;;;;;;5052936;28;20808;-61
2023/06/04 12:37:58;;;;;;;5.30;3.47;;;32.00;59.00;;;;;;5070724;28;20453;-61
2023/06/04 12:40:25;;;;;;;5.87;3.43;;;32.10;58.00;;;;;;5070732;28;20457;-61
2023/06/04 12:42:54;;;;;;;5.70;3.00;;;31.60;57.80;;;;;;5074208;28;20510;-61
2023/06/04 12:45:24;;;;;;;5.03;3.43;;;31.10;61.20;;;;;;5074120;28;21017;-61
2023/06/04 12:47:50;;;;;;;5.90;3.17;;;30.90;60.90;;;;;;5073966;28;20506;-61
2023/06/04 12:50:19;;;;;;;4.13;3.20;;;30.70;62.10;;;;;;5073881;28;20478;-61
2023/06/04 12:52:46;;;;;;;5.00;3.17;;;30.90;60.60;;;;;;5073851;28;20453;-61
2023/06/04 12:55:13;;;;;;;6.83;3.43;;;31.10;59.50;;;;;;5073838;28;20521;-61
2023/06/04 12:57:40;;;;;;;4.90;3.33;;;31.10;59.90;;;;;;5073848;28;20456;-61